Terminal Aerodrome Forecast
Issued by NWS

Home | Current Version | Previous Version | Graphics & Text | Print | Product List | Glossary On
Versions: 1 2 3 4 5 6 7 8 9 10 11 12 13 14 15 16 17 18 19 20 21 22 23 24 25 26 27 28 29 30 31
780
FTUS43 KLOT 161132
TAFDPA
TAF
KDPA 161132Z 1612/1712 31010KT P6SM OVC022
      TEMPO 1612/1615 32012G20KT
     FM161800 VRB03KT P6SM SCT025 BKN250
     FM170400 11004KT P6SM SCT025 BKN150
     FM170900 17008KT P6SM BKN200=

USA.gov is the U.S. government's official web portal to all federal, state and local government web resources and services.